Time;durP1;ratioP1;P1;durP2;ratioP2;P2;SDS_P1;SDS_P2;PMS_P1;PMS_P2;Temp;Humidity;BMP_temperature;BMP_pressure;BME280_temperature;BME280_humidity;BME280_pressure;Samples;Min_cycle;Max_cycle;Signal;HPM_P1;HPM_P2
2023/03/20 00:00:58;;;;;;;121.40;60.70;;;;;;;3.62;70.68;99785.34;218040;1257;141320;-68
2023/03/20 00:06:03;;;;;;;125.40;62.60;;;;;;;3.56;70.98;99779.75;217963;1261;140187;-69
2023/03/20 00:11:22;;;;;;;129.60;63.20;;;;;;;3.53;71.16;99778.75;217951;1256;140415;-66
2023/03/20 00:16:32;;;;;;;122.60;63.40;;;;;;;3.51;71.30;99776.33;217423;1260;139993;-66
2023/03/20 00:21:37;;;;;;;109.30;62.00;;;;;;;3.54;71.76;99777.59;217502;1258;140334;-66
2023/03/20 00:26:44;;;;;;;120.80;64.70;;;;;;;3.53;71.92;99779.81;218048;1257;140416;-64
2023/03/20 00:31:48;;;;;;;116.30;59.70;;;;;;;3.58;72.17;99771.63;217530;1257;138958;-66
2023/03/20 00:36:55;;;;;;;113.70;62.30;;;;;;;3.69;72.20;99772.13;218855;1257;140727;-66
2023/03/20 00:42:05;;;;;;;122.80;68.70;;;;;;;3.76;72.28;99770.80;218704;1257;139638;-65
2023/03/20 00:47:20;;;;;;;99.80;59.40;;;;;;;3.78;72.25;99764.45;218782;1260;140537;-65
2023/03/20 00:52:25;;;;;;;99.80;58.60;;;;;;;3.67;72.08;99757.07;217944;1257;140940;-66
2023/03/20 00:57:41;;;;;;;114.20;66.00;;;;;;;3.58;72.41;99754.19;217790;1257;140114;-68
2023/03/20 01:02:46;;;;;;;106.40;61.00;;;;;;;3.53;72.24;99746.20;219409;1257;139711;-66
2023/03/20 01:07:52;;;;;;;107.70;52.90;;;;;;;3.48;72.47;99745.61;220297;1256;140643;-67
2023/03/20 01:13:01;;;;;;;111.50;65.90;;;;;;;3.53;72.63;99745.75;220095;1257;139995;-66
2023/03/20 01:18:09;;;;;;;103.30;59.10;;;;;;;3.60;72.75;99745.41;220239;1257;141229;-66
2023/03/20 01:23:14;;;;;;;105.80;57.70;;;;;;;3.59;72.59;99748.33;219187;1257;139683;-68
2023/03/20 01:28:23;;;;;;;91.00;52.10;;;;;;;3.44;72.41;99751.01;219271;1256;140279;-68
2023/03/20 01:33:30;;;;;;;92.60;54.70;;;;;;;3.31;72.53;99754.82;217965;1257;139548;-67
2023/03/20 01:38:34;;;;;;;116.30;63.20;;;;;;;3.26;72.90;99756.63;220226;1257;139674;-68
2023/03/20 01:46:11;;;;;;;106.40;57.80;;;;;;;3.27;72.76;99753.31;214499;1297;636293;-66
2023/03/20 01:51:35;;;;;;;107.80;60.10;;;;;;;3.23;72.79;99750.73;216613;1270;139739;-66
2023/03/20 01:56:45;;;;;;;113.40;65.70;;;;;;;3.23;73.22;99749.26;216618;1269;462837;-67
2023/03/20 02:01:50;;;;;;;105.90;59.70;;;;;;;3.19;73.09;99753.27;218249;1266;138583;-68
2023/03/20 02:06:56;;;;;;;102.50;60.60;;;;;;;3.10;73.29;99754.83;217448;1266;138490;-65
2023/03/20 02:12:02;;;;;;;109.10;57.80;;;;;;;3.01;73.08;99748.18;216525;1270;138977;-63
2023/03/20 02:17:09;;;;;;;112.80;61.50;;;;;;;2.94;73.44;99750.77;216623;1266;141145;-68
2023/03/20 02:22:32;;;;;;;111.20;63.90;;;;;;;2.93;73.15;99754.44;217827;1257;139806;-67
2023/03/20 02:28:30;;;;;;;118.20;65.80;;;;;;;2.89;73.56;99750.05;218213;1256;139276;-67
2023/03/20 02:34:02;;;;;;;118.80;60.90;;;;;;;2.77;73.68;99746.75;218073;1256;139332;-68
2023/03/20 02:39:27;;;;;;;101.40;55.40;;;;;;;2.64;73.75;99741.49;218765;1257;139209;-68
2023/03/20 02:44:43;;;;;;;116.20;57.90;;;;;;;2.53;74.03;99732.93;218711;1256;139162;-66
2023/03/20 02:50:00;;;;;;;129.20;67.10;;;;;;;2.46;74.30;99738.58;217769;1259;139064;-67
2023/03/20 02:55:28;;;;;;;126.50;64.70;;;;;;;2.49;74.88;99739.91;218952;1257;139875;-65
2023/03/20 03:00:38;;;;;;;130.70;67.30;;;;;;;2.52;74.91;99741.83;219955;1257;141255;-66
2023/03/20 03:05:55;;;;;;;117.10;62.90;;;;;;;2.65;75.28;99742.44;220441;1257;139215;-66
2023/03/20 03:11:06;;;;;;;121.60;65.70;;;;;;;2.79;75.13;99739.56;219543;1256;141334;-65
2023/03/20 03:16:28;;;;;;;138.50;68.50;;;;;;;2.94;75.44;99739.46;220316;1256;140017;-67
2023/03/20 03:21:34;;;;;;;110.70;55.90;;;;;;;2.95;75.18;99736.48;219112;1256;139303;-66
2023/03/20 03:26:41;;;;;;;97.10;51.70;;;;;;;2.92;75.32;99732.48;219072;1257;139702;-64
2023/03/20 03:31:50;;;;;;;91.70;51.30;;;;;;;2.90;75.41;99735.50;217848;1257;139499;-65
2023/03/20 03:37:17;;;;;;;98.50;55.70;;;;;;;2.97;75.77;99734.77;217664;1257;141078;-66
2023/03/20 03:42:22;;;;;;;96.80;56.30;;;;;;;3.07;75.62;99729.39;218723;1257;139330;-67
2023/03/20 03:47:34;;;;;;;130.00;60.20;;;;;;;3.08;75.72;99729.80;219032;1257;138339;-67
2023/03/20 03:52:41;;;;;;;102.00;52.00;;;;;;;3.12;75.89;99722.02;218391;1256;138542;-67
2023/03/20 03:57:50;;;;;;;118.90;63.50;;;;;;;3.16;76.03;99723.37;218156;1257;139154;-66
2023/03/20 04:02:57;;;;;;;129.20;65.30;;;;;;;3.26;76.19;99723.40;218266;1257;141129;-67
2023/03/20 04:08:06;;;;;;;164.40;67.30;;;;;;;3.31;76.01;99721.06;217755;1260;139370;-67
2023/03/20 04:13:10;;;;;;;196.80;83.10;;;;;;;3.36;76.09;99722.61;218139;1257;140020;-66
2023/03/20 04:18:18;;;;;;;170.30;70.60;;;;;;;3.41;76.35;99724.51;217992;1257;139883;-68
2023/03/20 04:23:23;;;;;;;140.70;66.20;;;;;;;3.46;76.41;99724.27;218068;1257;138732;-68
2023/03/20 04:28:29;;;;;;;114.20;58.60;;;;;;;3.48;76.18;99725.10;217811;1257;139776;-68
2023/03/20 04:33:33;;;;;;;108.60;58.30;;;;;;;3.54;76.44;99724.88;218558;1257;140452;-66
2023/03/20 04:38:37;;;;;;;122.00;63.60;;;;;;;3.65;76.57;99728.64;218797;1256;139620;-66
2023/03/20 04:43:42;;;;;;;118.90;60.10;;;;;;;3.69;76.55;99728.36;218453;1257;139509;-66
2023/03/20 04:48:46;;;;;;;119.40;61.10;;;;;;;3.72;76.56;99735.52;219642;1257;138759;-66
2023/03/20 04:53:52;;;;;;;127.20;62.50;;;;;;;3.76;76.60;99738.15;218244;1257;139625;-66
2023/03/20 04:58:56;;;;;;;111.50;58.00;;;;;;;3.80;76.42;99735.31;219193;1256;140281;-67
2023/03/20 05:04:00;;;;;;;138.10;65.90;;;;;;;3.83;76.26;99739.48;218960;1256;139305;-66
2023/03/20 05:09:06;;;;;;;114.00;59.60;;;;;;;3.87;76.35;99741.33;220526;1256;140298;-66
2023/03/20 05:14:10;;;;;;;103.30;58.00;;;;;;;3.93;76.65;99745.24;218218;1256;138796;-68
2023/03/20 05:19:15;;;;;;;78.00;46.60;;;;;;;3.95;76.30;99748.25;219174;1257;139093;-66
2023/03/20 05:24:19;;;;;;;94.20;55.50;;;;;;;3.89;76.22;99747.20;219616;1257;138744;-67
2023/03/20 05:29:24;;;;;;;78.50;51.00;;;;;;;3.98;76.33;99753.82;217772;1256;139523;-66
2023/03/20 05:34:28;;;;;;;84.70;52.10;;;;;;;4.08;76.24;99760.46;217571;1257;141036;-67
2023/03/20 05:39:32;;;;;;;94.60;55.30;;;;;;;4.20;76.29;99762.48;217600;1257;141268;-67
2023/03/20 05:44:36;;;;;;;93.40;53.50;;;;;;;4.38;76.77;99765.09;217613;1257;139428;-68
2023/03/20 05:49:44;;;;;;;129.10;58.10;;;;;;;4.63;76.85;99763.00;217471;1260;138864;-68
2023/03/20 05:54:48;;;;;;;172.80;73.90;;;;;;;4.95;76.97;99765.83;217583;1257;140231;-69
2023/03/20 05:59:53;;;;;;;172.00;76.10;;;;;;;5.28;76.90;99761.55;217623;1257;139157;-71
2023/03/20 06:04:59;;;;;;;190.30;79.70;;;;;;;5.58;76.84;99754.44;217582;1260;139295;-69
2023/03/20 06:10:06;;;;;;;123.10;59.00;;;;;;;5.87;77.09;99761.34;217643;1257;139409;-68
2023/03/20 06:15:14;;;;;;;116.40;60.40;;;;;;;6.22;76.72;99764.64;218395;1259;139782;-69
2023/03/20 06:20:20;;;;;;;108.20;57.00;;;;;;;6.64;76.46;99765.57;217809;1257;222705;-68
2023/03/20 06:25:25;;;;;;;119.80;64.30;;;;;;;7.04;76.59;99764.48;217437;1261;139490;-69
2023/03/20 06:30:28;;;;;;;113.10;56.00;;;;;;;7.35;76.55;99767.71;217893;1257;138784;-69
2023/03/20 06:35:33;;;;;;;75.30;42.00;;;;;;;7.62;76.19;99767.26;217678;1256;139739;-70
2023/03/20 06:40:40;;;;;;;73.20;40.70;;;;;;;7.85;75.78;99769.05;217737;1257;139978;-69
2023/03/20 06:45:45;;;;;;;70.60;41.60;;;;;;;8.11;74.95;99771.36;217549;1260;138855;-70
2023/03/20 06:50:51;;;;;;;67.50;41.10;;;;;;;8.37;74.73;99771.27;219024;1257;138584;-69
2023/03/20 06:55:57;;;;;;;63.80;39.00;;;;;;;8.67;73.94;99777.83;217714;1260;139721;-69
2023/03/20 07:01:01;;;;;;;64.20;38.00;;;;;;;8.90;72.91;99774.22;218881;1257;139871;-70
2023/03/20 07:06:06;;;;;;;60.50;34.60;;;;;;;9.16;72.49;99777.14;220756;1256;138813;-71
2023/03/20 07:11:10;;;;;;;60.60;38.90;;;;;;;9.43;71.93;99774.67;220491;1257;139270;-70
2023/03/20 07:16:17;;;;;;;68.80;41.90;;;;;;;9.74;71.41;99773.40;219703;1260;139056;-70
2023/03/20 07:21:25;;;;;;;61.50;39.40;;;;;;;10.12;70.84;99773.58;218504;1260;140031;-69
2023/03/20 07:26:30;;;;;;;60.40;36.50;;;;;;;10.44;70.32;99773.79;217790;1260;138879;-69
2023/03/20 07:31:34;;;;;;;61.90;37.60;;;;;;;10.73;69.89;99777.04;217709;1257;139587;-70
2023/03/20 07:36:40;;;;;;;64.00;40.50;;;;;;;11.01;68.88;99779.48;217913;1260;138694;-70
2023/03/20 07:45:42;;;;;;;50.00;32.00;;;;;;;11.42;67.74;99780.80;214703;1297;636390;-71
2023/03/20 07:50:46;;;;;;;45.70;31.70;;;;;;;11.78;67.23;99781.61;216882;1272;138472;-69
2023/03/20 07:55:52;;;;;;;47.70;32.40;;;;;;;12.26;67.09;99780.48;215863;1269;421063;-71
2023/03/20 08:00:57;;;;;;;45.10;29.40;;;;;;;12.76;66.42;99786.80;217092;1265;139083;-71
2023/03/20 08:06:05;;;;;;;48.90;29.00;;;;;;;13.06;65.38;99790.08;216987;1266;138808;-70
2023/03/20 08:11:11;;;;;;;43.20;26.80;;;;;;;13.14;64.72;99791.45;217169;1265;139498;-73
2023/03/20 08:16:15;;;;;;;35.20;23.90;;;;;;;13.14;64.43;99788.95;217802;1265;139468;-71
2023/03/20 08:21:19;;;;;;;38.50;25.00;;;;;;;13.15;64.31;99789.96;217493;1259;139303;-70
2023/03/20 08:26:24;;;;;;;41.00;27.90;;;;;;;13.24;64.40;99792.28;218978;1259;139143;-70
2023/03/20 08:31:28;;;;;;;46.00;29.70;;;;;;;13.30;64.03;99798.61;218692;1254;138724;-70
2023/03/20 08:36:32;;;;;;;34.60;20.10;;;;;;;13.35;63.84;99798.58;218691;1254;140023;-69
2023/03/20 08:41:38;;;;;;;34.70;24.90;;;;;;;13.34;63.48;99802.20;219328;1257;139211;-70
2023/03/20 08:46:45;;;;;;;32.60;23.30;;;;;;;13.22;63.19;99800.61;217953;1256;139208;-69
2023/03/20 08:51:49;;;;;;;31.70;22.40;;;;;;;13.21;63.50;99806.33;219346;1256;139827;-69
2023/03/20 08:56:54;;;;;;;30.20;19.20;;;;;;;13.27;63.53;99811.85;220529;1256;139651;-71
2023/03/20 09:02:00;;;;;;;28.40;18.60;;;;;;;13.35;63.21;99814.05;220659;1256;139652;-68
2023/03/20 09:07:05;;;;;;;41.80;22.70;;;;;;;13.37;62.95;99822.42;220237;1255;139998;-69
2023/03/20 09:12:10;;;;;;;41.60;27.70;;;;;;;13.41;63.04;99821.04;219121;1257;138879;-70
2023/03/20 09:17:15;;;;;;;40.80;25.60;;;;;;;13.31;62.82;99829.42;217886;1259;139101;-70
2023/03/20 09:22:19;;;;;;;43.10;28.20;;;;;;;13.16;63.11;99829.06;219526;1256;139481;-69
2023/03/20 09:27:24;;;;;;;38.20;27.10;;;;;;;12.95;63.23;99832.89;218540;1255;138856;-69
2023/03/20 09:32:30;;;;;;;36.60;23.40;;;;;;;12.74;63.56;99831.11;217733;1257;141404;-70
2023/03/20 09:37:35;;;;;;;32.90;20.70;;;;;;;12.51;63.91;99832.56;218265;1256;138559;-69
2023/03/20 09:43:27;;;;;;;38.90;24.80;;;;;;;12.37;64.29;99827.73;218928;1256;139244;-69
2023/03/20 09:48:40;;;;;;;33.80;24.10;;;;;;;12.43;65.11;99829.02;217742;1259;138871;-69
2023/03/20 09:53:56;;;;;;;39.60;27.00;;;;;;;12.54;65.17;99829.86;217930;1257;140081;-71
2023/03/20 09:59:06;;;;;;;40.20;27.30;;;;;;;12.68;65.20;99833.82;217976;1256;140843;-72
2023/03/20 10:04:11;;;;;;;33.20;22.70;;;;;;;12.77;65.00;99835.56;217834;1259;139371;-72
2023/03/20 10:09:27;;;;;;;38.20;24.60;;;;;;;12.74;65.14;99831.07;217870;1256;139743;-71
2023/03/20 10:15:12;;;;;;;31.50;22.00;;;;;;;12.70;65.15;99827.91;218526;1256;138769;-75
2023/03/20 10:20:35;;;;;;;32.90;22.00;;;;;;;12.66;65.02;99829.99;218091;1256;139090;-68
2023/03/20 10:25:46;;;;;;;26.20;21.20;;;;;;;12.74;65.20;99833.05;218739;1256;139972;-71
2023/03/20 10:31:31;;;;;;;29.00;21.70;;;;;;;12.78;65.13;99826.70;218110;1259;138962;-71
2023/03/20 10:36:41;;;;;;;30.40;20.00;;;;;;;12.85;65.18;99825.17;218313;1256;139831;-69
2023/03/20 10:42:00;;;;;;;26.20;19.70;;;;;;;12.90;65.35;99819.30;218313;1256;139022;-69
2023/03/20 10:47:10;;;;;;;22.40;17.60;;;;;;;12.91;65.06;99820.06;218983;1256;139268;-71
2023/03/20 10:52:28;;;;;;;29.60;21.90;;;;;;;12.87;65.18;99819.41;218694;1259;138917;-73
2023/03/20 10:57:40;;;;;;;22.00;17.70;;;;;;;12.78;65.49;99813.43;219548;1257;150712;-69
2023/03/20 11:02:45;;;;;;;32.20;23.30;;;;;;;12.62;65.43;99817.84;220523;1255;140528;-74
2023/03/20 11:08:00;;;;;;;30.50;23.10;;;;;;;12.53;65.56;99809.27;218738;1256;139449;-71
2023/03/20 11:13:26;;;;;;;31.60;24.80;;;;;;;12.51;65.92;99807.54;217682;1259;139344;-74
2023/03/20 11:18:31;;;;;;;32.10;22.10;;;;;;;12.56;66.35;99806.89;218669;1258;139185;-72
2023/03/20 11:43:54;;;;;;;26.90;19.10;;;;;;;13.65;65.76;99793.27;214570;1301;637510;-70
2023/03/20 11:49:26;;;;;;;33.00;22.70;;;;;;;13.86;65.54;99778.39;216143;1269;139817;-71
2023/03/20 11:54:31;;;;;;;30.70;20.40;;;;;;;14.08;64.98;99773.63;215565;1269;399101;-73
2023/03/20 11:59:36;;;;;;;27.60;18.70;;;;;;;14.38;64.93;99769.35;216476;1268;138655;-73
2023/03/20 12:04:41;;;;;;;31.80;21.00;;;;;;;14.76;64.83;99758.69;217318;1269;139272;-71
2023/03/20 12:09:52;;;;;;;22.30;17.30;;;;;;;14.96;64.24;99755.17;216454;1266;138933;-72
2023/03/20 12:15:03;;;;;;;18.80;15.20;;;;;;;15.13;63.49;99757.44;216277;1270;150693;-71
2023/03/20 12:20:14;;;;;;;23.30;17.90;;;;;;;15.14;62.67;99753.41;216297;1268;139752;-68
2023/03/20 12:25:24;;;;;;;25.70;17.40;;;;;;;15.02;62.57;99753.53;217152;1267;140393;-71
2023/03/20 12:30:38;;;;;;;22.30;17.00;;;;;;;14.90;62.33;99750.27;217868;1256;139464;-66
2023/03/20 12:35:47;;;;;;;24.80;17.30;;;;;;;14.87;62.46;99746.45;217636;1256;138694;-69
2023/03/20 12:40:57;;;;;;;20.10;14.60;;;;;;;15.00;62.11;99742.84;217770;1259;139855;-69
2023/03/20 12:46:32;;;;;;;21.80;16.00;;;;;;;15.00;61.56;99741.88;217753;1256;138603;-70
2023/03/20 12:52:11;;;;;;;20.70;14.80;;;;;;;14.84;61.26;99734.52;217892;1256;139774;-72
2023/03/20 12:57:28;;;;;;;21.90;14.60;;;;;;;14.67;61.36;99731.50;219918;1256;140499;-77
2023/03/20 13:02:32;;;;;;;14.00;12.60;;;;;;;14.66;61.27;99730.42;217832;1257;139768;-78
2023/03/20 13:07:57;;;;;;;16.50;12.30;;;;;;;14.69;61.41;99728.39;219761;1256;139481;-77
2023/03/20 13:13:26;;;;;;;15.30;13.70;;;;;;;14.64;61.14;99735.18;218996;1255;138912;-69
2023/03/20 13:18:47;;;;;;;17.40;12.30;;;;;;;14.47;61.03;99728.60;218070;1256;139120;-76
2023/03/20 13:24:16;;;;;;;16.10;14.00;;;;;;;14.29;61.14;99727.56;217920;1256;140101;-71
2023/03/20 13:29:36;;;;;;;20.90;16.10;;;;;;;14.10;61.54;99728.73;217542;1257;138934;-68
2023/03/20 13:35:02;;;;;;;17.80;13.80;;;;;;;13.89;62.01;99723.20;218469;1259;139414;-69
2023/03/20 13:40:11;;;;;;;23.40;17.60;;;;;;;13.73;62.69;99719.72;217937;1257;140194;-71
2023/03/20 13:45:23;;;;;;;16.00;14.30;;;;;;;13.66;63.19;99721.91;217487;1256;142274;-70
2023/03/20 13:51:06;;;;;;;26.40;18.00;;;;;;;13.70;63.51;99717.08;217525;1256;140087;-72
2023/03/20 13:56:35;;;;;;;23.40;20.40;;;;;;;13.73;64.00;99706.02;217584;1259;139176;-72
2023/03/20 14:01:42;;;;;;;35.20;20.50;;;;;;;13.88;64.20;99702.14;217614;1257;139250;-69
2023/03/20 14:06:58;;;;;;;22.70;16.20;;;;;;;13.97;64.28;99694.34;217777;1256;140347;-69
2023/03/20 14:12:05;;;;;;;26.10;18.90;;;;;;;14.01;64.48;99691.91;217659;1257;140218;-72
2023/03/20 14:17:29;;;;;;;;;;;;;;;13.95;64.54;99699.63;218638;1257;138598;-73
2023/03/20 14:22:42;;;;;;;25.10;19.70;;;;;;;13.78;64.88;99705.27;218163;1257;125944;-73
2023/03/20 14:27:53;;;;;;;24.70;19.20;;;;;;;13.62;65.15;99710.36;218473;1256;138824;-71
2023/03/20 14:33:18;;;;;;;28.50;21.30;;;;;;;13.47;65.59;99711.34;217519;1257;140828;-72
2023/03/20 14:38:37;;;;;;;24.10;19.40;;;;;;;13.42;65.90;99710.25;218624;1256;139973;-84
2023/03/20 14:44:12;;;;;;;19.60;17.50;;;;;;;13.29;66.06;99708.93;219142;1256;140006;-71
2023/03/20 14:49:48;;;;;;;20.70;15.50;;;;;;;13.13;66.72;99700.52;217899;1259;139646;-70
2023/03/20 14:54:53;;;;;;;24.70;18.10;;;;;;;13.11;66.96;99697.17;219210;1257;138880;-72
2023/03/20 14:59:58;;;;;;;23.70;17.00;;;;;;;13.13;67.32;99693.70;218648;1256;139401;-70
2023/03/20 15:05:03;;;;;;;25.80;20.20;;;;;;;13.13;67.22;99691.52;217813;1256;138810;-69
2023/03/20 15:10:09;;;;;;;30.00;22.20;;;;;;;13.17;67.39;99688.34;220505;1256;140413;-70
2023/03/20 15:15:30;;;;;;;30.80;22.50;;;;;;;13.17;67.47;99685.08;218036;1256;140394;-69
2023/03/20 15:20:35;;;;;;;24.90;20.00;;;;;;;13.15;67.73;99678.80;218378;1256;140952;-70
2023/03/20 15:25:44;;;;;;;29.10;21.70;;;;;;;13.28;67.94;99671.75;217662;1255;139953;-69
2023/03/20 15:30:52;;;;;;;25.90;20.20;;;;;;;13.36;67.85;99673.51;218623;1256;140573;-70
2023/03/20 15:36:06;;;;;;;29.70;22.00;;;;;;;13.29;67.76;99680.77;217767;1259;140203;-69
2023/03/20 15:41:29;;;;;;;27.30;21.60;;;;;;;13.10;67.83;99685.37;217527;1257;139915;-68
2023/03/20 15:46:35;;;;;;;27.70;23.50;;;;;;;12.90;68.02;99688.20;217689;1256;139269;-69
2023/03/20 15:51:39;;;;;;;31.40;23.10;;;;;;;12.83;68.35;99697.38;218219;1256;139612;-68
2023/03/20 15:56:45;;;;;;;35.30;22.10;;;;;;;12.74;68.54;99695.94;218060;1256;141058;-69
2023/03/20 16:01:54;;;;;;;35.50;24.10;;;;;;;12.62;68.95;99700.02;217657;1255;139405;-67
2023/03/20 16:07:01;;;;;;;30.70;24.10;;;;;;;12.54;69.43;99698.68;218247;1256;139726;-68
2023/03/20 16:12:17;;;;;;;36.90;24.10;;;;;;;12.47;69.30;99701.02;218004;1256;138817;-68
2023/03/20 16:17:24;;;;;;;34.00;23.60;;;;;;;12.40;69.47;99698.52;219030;1256;140936;-67
2023/03/20 16:22:32;;;;;;;27.30;22.80;;;;;;;12.31;69.70;99696.63;217525;1259;139210;-69
2023/03/20 16:27:40;;;;;;;33.30;22.20;;;;;;;12.25;69.95;99690.70;217851;1259;139625;-72
2023/03/20 16:32:49;;;;;;;30.10;26.00;;;;;;;12.16;69.96;99691.34;218012;1256;139727;-69
2023/03/20 16:38:00;;;;;;;33.50;25.50;;;;;;;12.01;70.20;99694.16;218792;1256;139192;-70
2023/03/20 16:43:17;;;;;;;33.50;25.80;;;;;;;11.92;70.34;99703.17;219444;1257;140286;-67
2023/03/20 16:48:31;;;;;;;40.80;22.80;;;;;;;11.84;70.65;99706.05;219378;1257;140001;-70
2023/03/20 16:53:41;;;;;;;34.40;24.20;;;;;;;11.75;70.55;99708.50;220044;1256;140521;-72
2023/03/20 16:58:45;;;;;;;36.50;25.10;;;;;;;11.67;70.72;99716.84;220163;1256;140087;-70
2023/03/20 17:03:57;;;;;;;32.40;23.80;;;;;;;11.62;71.01;99719.77;218670;1259;139619;-66
2023/03/20 17:09:30;;;;;;;30.50;24.70;;;;;;;11.57;71.32;99718.79;219091;1256;141314;-70
2023/03/20 17:14:35;;;;;;;33.70;25.50;;;;;;;11.52;71.49;99717.79;219415;1255;140214;-77
2023/03/20 17:19:41;;;;;;;33.10;25.90;;;;;;;11.44;71.62;99721.25;217964;1256;139912;-69
2023/03/20 17:24:46;;;;;;;33.90;25.30;;;;;;;11.38;72.01;99719.13;218809;1259;139721;-68
2023/03/20 17:29:50;;;;;;;35.70;25.20;;;;;;;11.36;72.01;99724.30;218099;1260;141002;-70
2023/03/20 17:34:54;;;;;;;36.80;25.70;;;;;;;11.32;72.14;99726.98;217497;1259;140613;-71
2023/03/20 17:39:59;;;;;;;42.50;31.50;;;;;;;11.25;72.50;99728.52;217678;1256;139685;-69
2023/03/20 17:45:04;;;;;;;37.60;27.30;;;;;;;11.17;72.42;99727.52;218255;1257;139635;-69
2023/03/20 17:50:17;;;;;;;37.90;28.00;;;;;;;11.09;72.41;99727.45;217449;1259;140620;-69
2023/03/20 17:55:21;;;;;;;33.20;25.30;;;;;;;11.05;72.59;99728.60;217798;1257;141134;-69
2023/03/20 18:00:25;;;;;;;30.30;24.80;;;;;;;11.03;72.89;99727.60;217474;1256;139738;-68
2023/03/20 18:05:33;;;;;;;40.30;25.70;;;;;;;11.02;73.04;99724.34;217569;1257;140879;-72
2023/03/20 18:10:38;;;;;;;31.60;24.70;;;;;;;11.00;72.95;99724.89;217396;1259;139772;-70
2023/03/20 18:15:48;;;;;;;29.80;24.00;;;;;;;10.96;73.08;99724.50;219241;1256;141221;-67
2023/03/20 18:20:56;;;;;;;36.80;25.10;;;;;;;10.92;73.15;99725.06;218392;1259;145227;-71
2023/03/20 18:26:30;;;;;;;28.10;23.70;;;;;;;10.87;73.18;99729.91;217869;1259;140526;-68
2023/03/20 18:31:44;;;;;;;36.90;27.40;;;;;;;10.81;73.39;99737.84;218680;1259;139787;-71
2023/03/20 18:36:50;;;;;;;34.60;26.20;;;;;;;10.77;73.57;99734.64;220322;1256;142060;-67
2023/03/20 18:41:54;;;;;;;30.80;24.20;;;;;;;10.72;73.85;99735.42;218319;1256;142543;-67
2023/03/20 18:46:58;;;;;;;35.50;25.40;;;;;;;10.62;73.66;99739.13;218743;1255;140279;-67
2023/03/20 18:52:02;;;;;;;35.70;26.60;;;;;;;10.51;74.10;99734.71;219693;1256;141006;-75
2023/03/20 18:57:12;;;;;;;32.30;26.00;;;;;;;10.48;74.48;99738.58;220208;1256;152891;-67
2023/03/20 19:02:15;;;;;;;43.30;28.50;;;;;;;10.45;74.81;99735.86;217863;1259;141020;-71
2023/03/20 19:07:19;;;;;;;34.00;25.00;;;;;;;10.42;74.77;99743.64;218158;1256;140706;-69
2023/03/20 19:12:24;;;;;;;38.40;27.20;;;;;;;10.35;75.00;99747.55;217873;1259;141858;-67
2023/03/20 19:17:29;;;;;;;38.10;30.30;;;;;;;10.30;75.25;99748.55;217833;1256;140557;-67
2023/03/20 19:22:33;;;;;;;40.60;29.70;;;;;;;10.29;75.71;99749.54;217515;1257;140682;-68
2023/03/20 19:27:41;;;;;;;40.50;27.70;;;;;;;10.27;75.78;99750.45;217717;1259;140627;-69
2023/03/20 19:32:47;;;;;;;37.60;25.50;;;;;;;10.25;76.28;99751.13;218046;1259;140940;-68
2023/03/20 19:37:52;;;;;;;35.40;27.70;;;;;;;10.25;76.44;99756.21;218427;1256;140966;-72
2023/03/20 19:42:59;;;;;;;38.30;27.00;;;;;;;10.25;76.56;99760.32;217394;1257;140428;-68
2023/03/20 19:48:18;;;;;;;21.70;14.30;;;;;;;10.22;76.75;99758.39;217681;1259;139915;-69
2023/03/20 19:53:27;;;;;;;32.70;21.50;;;;;;;10.12;76.73;99762.38;217737;1257;140503;-68
2023/03/20 19:58:33;;;;;;;27.90;19.40;;;;;;;10.03;76.88;99764.36;218298;1259;140683;-68
2023/03/20 20:03:39;;;;;;;25.90;19.70;;;;;;;9.95;77.14;99759.31;218011;1259;139678;-68
2023/03/20 20:08:44;;;;;;;26.70;18.80;;;;;;;9.89;77.22;99761.34;217528;1256;139660;-66
2023/03/20 20:13:52;;;;;;;27.40;19.20;;;;;;;9.83;77.47;99763.59;218372;1259;140792;-68
2023/03/20 20:19:17;;;;;;;30.40;20.70;;;;;;;9.80;77.85;99765.23;218486;1256;140114;-67
2023/03/20 20:24:22;;;;;;;26.70;18.00;;;;;;;9.82;78.01;99760.52;218718;1257;140077;-68
2023/03/20 20:29:27;;;;;;;26.80;18.70;;;;;;;9.81;78.02;99762.85;217729;1259;139665;-67
2023/03/20 20:34:31;;;;;;;27.90;18.60;;;;;;;9.82;78.43;99763.77;217926;1257;140924;-67
2023/03/20 20:39:56;;;;;;;40.90;22.70;;;;;;;9.83;78.26;99765.23;218465;1257;142567;-67
2023/03/20 20:45:00;;;;;;;26.40;17.70;;;;;;;9.82;78.44;99768.36;220363;1259;140766;-68
2023/03/20 20:50:07;;;;;;;24.50;17.70;;;;;;;9.78;78.47;99767.53;219445;1257;141817;-67
2023/03/20 20:55:17;;;;;;;22.20;16.00;;;;;;;9.78;78.66;99764.27;219553;1256;139839;-64
2023/03/20 21:00:26;;;;;;;32.20;18.30;;;;;;;9.76;78.58;99764.04;220322;1256;139984;-64
2023/03/20 21:05:51;;;;;;;25.00;18.20;;;;;;;9.77;78.77;99767.63;219003;1259;140761;-68
2023/03/20 21:10:56;;;;;;;24.00;16.70;;;;;;;9.79;78.90;99766.47;218757;1259;140731;-66
2023/03/20 21:16:01;;;;;;;36.10;25.40;;;;;;;9.82;79.01;99767.71;218150;1261;140312;-70
2023/03/20 21:21:09;;;;;;;32.20;19.90;;;;;;;9.78;78.78;99766.83;217735;1259;139630;-65
2023/03/20 21:26:14;;;;;;;26.30;19.40;;;;;;;9.71;78.72;99768.05;219505;1257;140784;-66
2023/03/20 21:31:25;;;;;;;24.30;18.10;;;;;;;9.67;78.97;99769.83;218096;1260;140640;-66
2023/03/20 21:36:34;;;;;;;28.20;19.80;;;;;;;9.61;78.96;99769.83;217753;1259;139788;-68
2023/03/20 21:41:40;;;;;;;23.80;16.60;;;;;;;9.58;79.11;99780.31;218577;1259;139575;-67
2023/03/20 21:46:45;;;;;;;23.20;19.30;;;;;;;9.54;79.24;99779.27;219166;1259;141144;-68
2023/03/20 21:52:13;;;;;;;26.70;16.70;;;;;;;9.52;79.41;99780.73;218338;1260;142539;-67
2023/03/20 21:57:37;;;;;;;23.90;18.00;;;;;;;9.46;79.63;99782.29;218081;1256;140681;-66
2023/03/20 22:03:03;;;;;;;26.50;19.10;;;;;;;9.35;79.66;99784.45;218223;1260;140018;-67
2023/03/20 22:08:15;;;;;;;28.70;17.30;;;;;;;9.27;79.78;99783.70;217637;1257;138878;-67
2023/03/20 22:13:39;;;;;;;32.50;18.80;;;;;;;9.20;80.03;99786.31;218430;1257;140267;-65
2023/03/20 22:19:03;;;;;;;30.00;19.60;;;;;;;9.18;80.25;99780.05;218607;1256;141611;-65
2023/03/20 22:24:28;;;;;;;31.30;19.90;;;;;;;9.17;80.32;99780.08;218284;1260;140983;-68
2023/03/20 22:29:52;;;;;;;32.80;20.00;;;;;;;9.17;80.42;99780.60;220001;1256;140263;-68
2023/03/20 22:35:16;;;;;;;31.00;20.50;;;;;;;9.16;80.46;99783.38;220203;1257;140226;-66
2023/03/20 22:40:43;;;;;;;26.50;19.70;;;;;;;9.17;80.60;99782.05;220385;1257;140265;-64
2023/03/20 22:52:09;;;;;;;35.50;20.30;;;;;;;9.17;80.53;99781.84;220013;1258;140372;-68
2023/03/20 22:57:34;;;;;;;28.50;18.70;;;;;;;9.14;80.55;99782.29;219303;1260;140438;-67
2023/03/20 23:09:19;;;;;;;31.40;17.00;;;;;;;9.07;80.87;99782.07;217764;1258;140499;-65
2023/03/20 23:14:23;;;;;;;31.50;18.10;;;;;;;9.01;80.58;99778.26;218691;1257;139890;-64
2023/03/20 23:19:34;;;;;;;28.00;17.20;;;;;;;8.94;80.70;99779.23;218552;1257;141660;-65
2023/03/20 23:24:55;;;;;;;25.30;15.80;;;;;;;8.90;80.79;99775.88;217860;1257;140289;-64
2023/03/20 23:30:10;;;;;;;30.90;17.50;;;;;;;8.83;80.84;99770.91;219006;1257;139691;-67
2023/03/20 23:35:14;;;;;;;25.80;17.20;;;;;;;8.79;80.95;99776.97;217665;1257;139717;-67
2023/03/20 23:40:18;;;;;;;27.50;17.40;;;;;;;8.75;80.87;99775.62;217990;1258;140138;-69
2023/03/20 23:45:24;;;;;;;27.70;15.80;;;;;;;8.69;80.99;99777.97;217566;1257;140304;-67
2023/03/20 23:50:30;;;;;;;22.10;13.50;;;;;;;8.63;81.06;99777.30;218046;1258;140892;-68
2023/03/20 23:55:55;;;;;;;21.30;12.70;;;;;;;8.55;81.29;99771.34;217592;1260;596895;-67
